Time;durP1;ratioP1;P1;durP2;ratioP2;P2;SDS_P1;SDS_P2;PMS_P1;PMS_P2;Temp;Humidity;BMP_temperature;BMP_pressure;BME280_temperature;BME280_humidity;BME280_pressure;Samples;Min_cycle;Max_cycle;Signal;HPM_P1;HPM_P2
2022/12/04 00:02:07;;;;;;;37.35;16.20;;;5.00;99.90;;;;;;5096749;29;20039;-61
2022/12/04 00:04:43;;;;;;;41.75;16.55;;;5.10;99.90;;;;;;5102361;29;20059;-60
2022/12/04 00:07:17;;;;;;;34.40;16.15;;;5.00;99.90;;;;;;5090722;29;20053;-60
2022/12/04 00:09:54;;;;;;;43.78;15.88;;;5.00;99.90;;;;;;5101977;28;20051;-59
2022/12/04 00:12:31;;;;;;;37.97;17.67;;;5.00;99.90;;;;;;5114010;29;20057;-60
2022/12/04 00:15:04;;;;;;;35.28;17.92;;;4.90;99.90;;;;;;5097957;29;20240;-60
2022/12/04 00:17:41;;;;;;;38.08;15.30;;;5.00;99.90;;;;;;5098425;29;20362;-60
2022/12/04 00:20:18;;;;;;;45.42;17.70;;;5.00;99.90;;;;;;5113105;29;20041;-60
2022/12/04 00:22:52;;;;;;;44.70;17.17;;;5.00;99.90;;;;;;5083083;29;20061;-59
2022/12/04 00:25:25;;;;;;;38.90;15.75;;;5.00;99.90;;;;;;5114866;29;20324;-59
2022/12/04 00:28:04;;;;;;;35.95;17.20;;;5.00;99.90;;;;;;5111830;29;20047;-59
2022/12/04 00:30:40;;;;;;;44.58;17.33;;;5.00;99.90;;;;;;5115907;29;20043;-60
2022/12/04 00:33:13;;;;;;;39.38;15.45;;;5.10;99.90;;;;;;5092724;29;20254;-61
2022/12/04 00:35:44;;;;;;;25.67;11.95;;;5.00;99.90;;;;;;5097425;29;20051;-61
2022/12/04 00:38:15;;;;;;;42.28;15.30;;;4.90;99.90;;;;;;5082532;29;20053;-61
2022/12/04 00:40:51;;;;;;;38.35;14.85;;;4.80;99.90;;;;;;5099711;29;20047;-61
2022/12/04 00:43:23;;;;;;;43.58;18.80;;;4.80;99.90;;;;;;5081959;29;20248;-62
2022/12/04 00:45:58;;;;;;;42.00;16.48;;;4.80;99.90;;;;;;5130340;29;20035;-61
2022/12/04 00:48:32;;;;;;;36.72;16.77;;;4.90;99.90;;;;;;5130039;29;20050;-61
2022/12/04 00:51:11;;;;;;;39.70;18.20;;;4.80;99.90;;;;;;5082140;29;20049;-62
2022/12/04 00:53:54;;;;;;;32.58;14.95;;;4.70;99.90;;;;;;5097434;29;20039;-61
2022/12/04 00:56:31;;;;;;;31.80;14.93;;;4.70;99.90;;;;;;5116194;29;20039;-60
2022/12/04 00:59:04;;;;;;;41.60;16.85;;;4.70;99.90;;;;;;5085749;29;20061;-61
2022/12/04 01:01:39;;;;;;;36.15;16.27;;;4.70;99.90;;;;;;5147170;23;20150;-60
2022/12/04 01:04:10;;;;;;;;;;;4.80;99.90;;;;;;5144144;28;20038;-60
2022/12/04 01:06:51;;;;;;;35.55;15.55;;;4.80;99.90;;;;;;5123516;28;20025;-60
2022/12/04 01:09:25;;;;;;;36.72;16.13;;;4.80;99.90;;;;;;5139877;28;20050;-61
2022/12/04 01:12:02;;;;;;;39.72;18.67;;;4.90;99.90;;;;;;5154220;28;20072;-60
2022/12/04 01:14:39;;;;;;;39.90;15.75;;;5.00;99.90;;;;;;5136836;28;20045;-62
2022/12/04 01:17:13;;;;;;;30.92;14.93;;;5.00;99.90;;;;;;5132168;28;20200;-59
2022/12/04 01:19:47;;;;;;;38.40;16.77;;;5.10;99.90;;;;;;5120837;28;20046;-63
2022/12/04 01:22:25;;;;;;;39.90;17.25;;;5.20;99.90;;;;;;5131772;28;20049;-61
2022/12/04 01:24:57;;;;;;;37.55;17.13;;;5.20;99.90;;;;;;5135396;28;20041;-60
2022/12/04 01:27:37;;;;;;;38.83;16.83;;;5.40;99.90;;;;;;5132008;28;20059;-62
2022/12/04 01:30:11;;;;;;;38.60;16.52;;;5.50;99.90;;;;;;5155800;28;20088;-61
2022/12/04 01:32:45;;;;;;;37.05;17.67;;;5.40;99.90;;;;;;5154937;28;20045;-60
2022/12/04 01:35:18;;;;;;;38.50;17.50;;;5.40;99.90;;;;;;5137602;28;20049;-59
2022/12/04 01:37:52;;;;;;;40.25;17.00;;;5.40;99.90;;;;;;5148751;28;20039;-60
2022/12/04 01:40:26;;;;;;;31.33;15.02;;;5.50;99.90;;;;;;5154550;28;20049;-59
2022/12/04 01:43:03;;;;;;;32.40;14.00;;;5.20;99.90;;;;;;5149151;28;20057;-61
2022/12/04 01:45:50;;;;;;;38.20;16.80;;;5.10;99.90;;;;;;5118934;29;20045;-59
2022/12/04 01:48:36;;;;;;;33.20;16.75;;;5.00;99.90;;;;;;5116774;28;20333;-61
2022/12/04 01:51:22;;;;;;;30.48;14.32;;;5.00;99.90;;;;;;5122628;28;20536;-60
2022/12/04 01:54:02;;;;;;;36.25;16.40;;;5.10;99.90;;;;;;5136496;28;20050;-59
2022/12/04 01:56:53;;;;;;;33.15;15.70;;;5.20;99.90;;;;;;5155168;28;20236;-60
2022/12/04 01:59:31;;;;;;;29.92;14.60;;;5.20;99.90;;;;;;5118515;29;20042;-58
2022/12/04 02:02:12;;;;;;;34.97;15.35;;;5.30;99.90;;;;;;5128005;28;20050;-60
2022/12/04 02:04:45;;;;;;;33.20;15.60;;;5.30;99.90;;;;;;5146433;28;20059;-60
2022/12/04 02:07:16;;;;;;;30.70;15.02;;;5.20;99.90;;;;;;5136859;28;20042;-60
2022/12/04 02:09:55;;;;;;;30.70;13.80;;;5.10;99.90;;;;;;5134760;28;20497;-60
2022/12/04 02:13:03;;;;;;;31.13;15.65;;;5.10;99.90;;;;;;5167597;28;20335;-59
2022/12/04 02:15:50;;;;;;;33.85;15.35;;;5.10;99.90;;;;;;5156365;28;20047;-60
2022/12/04 02:19:05;;;;;;;34.38;15.85;;;5.10;99.90;;;;;;5129907;28;20048;-60
2022/12/04 02:21:45;;;;;;;34.45;15.85;;;5.10;99.90;;;;;;5141604;28;20042;-61
2022/12/04 02:25:13;;;;;;;33.70;15.85;;;5.20;99.90;;;;;;5120434;28;20215;-59
2022/12/04 02:28:18;;;;;;;33.63;15.73;;;5.20;99.90;;;;;;5128690;28;20052;-59
2022/12/04 02:30:56;;;;;;;31.67;16.52;;;5.30;99.90;;;;;;5108916;28;20045;-60
2022/12/04 02:34:13;;;;;;;32.95;14.88;;;5.20;99.90;;;;;;5140307;28;20050;-63
2022/12/04 02:36:59;;;;;;;41.15;15.25;;;5.20;99.90;;;;;;5122916;28;20038;-59
2022/12/04 02:39:43;;;;;;;34.22;15.80;;;5.20;99.90;;;;;;5154151;28;20036;-59
2022/12/04 02:42:42;;;;;;;34.17;14.23;;;5.20;99.90;;;;;;5122497;28;20049;-62
2022/12/04 02:45:27;;;;;;;32.00;15.95;;;5.30;99.90;;;;;;5141167;28;20288;-60
2022/12/04 02:48:07;;;;;;;31.33;16.90;;;5.40;99.90;;;;;;5141272;28;20081;-60
2022/12/04 02:50:46;;;;;;;30.17;16.20;;;5.40;99.90;;;;;;5120947;28;20285;-59
2022/12/04 02:53:28;;;;;;;29.38;15.35;;;5.30;99.90;;;;;;5110250;28;20249;-64
2022/12/04 02:56:10;;;;;;;39.65;15.68;;;5.30;99.90;;;;;;5137032;28;20034;-60
2022/12/04 02:58:50;;;;;;;32.55;15.15;;;5.20;99.90;;;;;;5124278;28;20058;-60
2022/12/04 03:01:32;;;;;;;28.70;14.32;;;5.20;99.90;;;;;;5152976;28;20077;-60
2022/12/04 03:04:32;;;;;;;29.40;14.93;;;5.30;99.90;;;;;;5123996;28;20235;-60
2022/12/04 03:07:13;;;;;;;26.63;12.73;;;5.30;99.90;;;;;;5109108;28;20062;-60
2022/12/04 03:10:02;;;;;;;25.63;13.52;;;5.30;99.90;;;;;;5141821;28;20053;-60
2022/12/04 03:12:55;;;;;;;29.17;13.45;;;5.30;99.90;;;;;;5141364;28;20361;-60
2022/12/04 03:15:41;;;;;;;27.63;13.80;;;5.30;99.90;;;;;;5126379;28;20052;-60
2022/12/04 03:18:37;;;;;;;26.20;13.43;;;5.30;99.90;;;;;;5140372;28;20323;-60
2022/12/04 03:21:23;;;;;;;41.40;17.30;;;5.40;99.90;;;;;;5126414;28;20358;-61
2022/12/04 03:24:05;;;;;;;44.33;17.90;;;5.30;99.90;;;;;;5127029;28;20039;-59
2022/12/04 03:26:49;;;;;;;41.45;17.52;;;5.20;99.90;;;;;;5151016;28;20295;-60
2022/12/04 03:29:35;;;;;;;45.47;19.63;;;5.20;99.90;;;;;;5151556;28;20047;-62
2022/12/04 03:32:33;;;;;;;44.88;20.40;;;5.20;99.90;;;;;;5092918;28;20055;-59
2022/12/04 03:35:24;;;;;;;50.88;19.08;;;5.10;99.90;;;;;;5139705;28;20231;-59
2022/12/04 03:38:24;;;;;;;49.88;21.33;;;5.00;99.90;;;;;;5139281;28;20045;-61
2022/12/04 03:41:46;;;;;;;48.22;19.80;;;4.90;99.90;;;;;;5128072;28;20236;-59
2022/12/04 03:44:43;;;;;;;47.85;19.85;;;4.90;99.90;;;;;;5111645;28;20065;-60
2022/12/04 03:47:32;;;;;;;38.50;16.63;;;4.80;99.90;;;;;;5135589;28;20133;-59
2022/12/04 03:50:22;;;;;;;43.45;18.67;;;4.80;99.90;;;;;;5149813;28;20323;-60
2022/12/04 03:53:10;;;;;;;54.97;21.27;;;4.70;99.90;;;;;;5122232;28;20060;-63
2022/12/04 03:55:51;;;;;;;47.78;22.25;;;4.60;99.90;;;;;;5159020;28;20212;-59
2022/12/04 03:58:36;;;;;;;49.85;23.42;;;4.70;99.90;;;;;;5158214;28;20041;-59
2022/12/04 04:01:11;;;;;;;48.10;22.27;;;4.70;99.90;;;;;;5116983;28;20043;-60
2022/12/04 04:03:51;;;;;;;52.38;24.65;;;4.80;99.90;;;;;;5152483;28;20315;-60
2022/12/04 04:06:43;;;;;;;49.55;21.48;;;4.80;99.90;;;;;;5125231;28;20042;-62
2022/12/04 04:09:23;;;;;;;51.38;21.80;;;4.80;99.90;;;;;;5120452;28;20038;-59
2022/12/04 04:12:19;;;;;;;43.40;17.83;;;4.80;99.90;;;;;;5119617;28;20039;-59
2022/12/04 04:26:48;;;;;;;42.55;20.77;;;4.90;99.90;;;;;;5151642;28;20061;-59
2022/12/04 04:29:21;;;;;;;42.13;19.77;;;4.90;99.90;;;;;;5156530;28;20053;-60
2022/12/04 04:32:57;;;;;;;53.35;22.80;;;4.90;99.90;;;;;;5154568;28;20073;-60
2022/12/04 04:35:54;;;;;;;47.50;21.57;;;5.00;99.90;;;;;;5136438;28;20208;-61
2022/12/04 04:38:46;;;;;;;41.45;18.80;;;5.00;99.90;;;;;;5167527;28;20027;-59
2022/12/04 04:41:33;;;;;;;45.35;20.10;;;5.00;99.90;;;;;;5155843;28;20050;-60
2022/12/04 04:44:43;;;;;;;41.38;19.60;;;4.90;99.90;;;;;;5121061;29;20069;-59
2022/12/04 04:47:29;;;;;;;43.05;19.92;;;5.00;99.90;;;;;;5137765;28;20052;-61
2022/12/04 04:50:08;;;;;;;40.47;19.35;;;5.10;99.90;;;;;;5146115;28;20069;-59
2022/12/04 04:52:52;;;;;;;29.90;14.93;;;5.10;99.90;;;;;;5110694;28;20042;-60
2022/12/04 04:55:28;;;;;;;45.20;20.15;;;5.00;99.90;;;;;;5141282;28;20041;-60
2022/12/04 04:58:20;;;;;;;42.50;21.08;;;5.00;99.90;;;;;;5131745;28;20051;-62
2022/12/04 05:01:03;;;;;;;46.22;19.85;;;5.00;99.90;;;;;;5108187;28;20534;-59
2022/12/04 05:03:38;;;;;;;44.47;19.90;;;5.10;99.90;;;;;;5145995;28;20371;-60
2022/12/04 05:06:12;;;;;;;42.40;21.00;;;5.10;99.90;;;;;;5111914;28;20235;-59
2022/12/04 05:08:52;;;;;;;40.75;19.85;;;5.10;99.90;;;;;;5145431;28;20047;-60
2022/12/04 05:11:31;;;;;;;43.00;19.70;;;5.10;99.90;;;;;;5170122;28;20054;-60
2022/12/04 05:14:08;;;;;;;36.65;16.98;;;5.10;99.90;;;;;;5149696;28;20042;-60
2022/12/04 05:16:44;;;;;;;39.50;20.05;;;5.10;99.90;;;;;;5128108;28;20055;-59
2022/12/04 05:22:12;;;;;;;44.60;21.17;;;5.20;99.90;;;;;;5151721;28;20044;-59
2022/12/04 05:24:43;;;;;;;46.78;21.55;;;5.20;99.90;;;;;;5137773;28;20063;-60
2022/12/04 05:27:27;;;;;;;42.33;20.50;;;5.10;99.90;;;;;;5127261;28;20081;-60
2022/12/04 05:30:03;;;;;;;49.83;22.15;;;5.00;99.90;;;;;;5154293;28;20058;-60
2022/12/04 05:32:38;;;;;;;48.60;24.17;;;5.00;99.90;;;;;;5145228;28;20046;-59
2022/12/04 05:35:11;;;;;;;49.05;23.10;;;5.00;99.90;;;;;;5155338;28;20052;-59
2022/12/04 05:37:46;;;;;;;56.83;25.25;;;4.90;99.90;;;;;;5119256;29;20047;-59
2022/12/04 05:40:18;;;;;;;54.30;26.40;;;4.90;99.90;;;;;;5145532;28;20043;-60
2022/12/04 05:42:54;;;;;;;52.05;26.15;;;4.90;99.90;;;;;;5155537;28;20053;-61
2022/12/04 05:45:26;;;;;;;51.95;24.30;;;4.90;99.90;;;;;;5139003;28;20039;-59
2022/12/04 05:48:03;;;;;;;55.70;24.40;;;4.90;99.90;;;;;;5139670;28;20065;-60
2022/12/04 05:50:37;;;;;;;53.95;24.20;;;4.90;99.90;;;;;;5145653;28;20018;-60
2022/12/04 05:53:10;;;;;;;52.58;24.67;;;4.90;99.90;;;;;;5139173;28;20039;-59
2022/12/04 05:55:53;;;;;;;51.00;25.92;;;4.80;99.90;;;;;;5138433;28;20341;-60
2022/12/04 05:58:31;;;;;;;50.37;25.53;;;4.90;99.90;;;;;;5123293;28;20216;-59
2022/12/04 06:01:20;;;;;;;50.92;24.30;;;4.90;99.90;;;;;;5105194;28;20751;-60
2022/12/04 06:03:54;;;;;;;54.17;25.88;;;5.00;99.90;;;;;;5136952;28;20039;-59
2022/12/04 06:06:27;;;;;;;56.97;25.65;;;4.90;99.90;;;;;;5128487;28;20053;-61
2022/12/04 06:09:07;;;;;;;52.70;27.63;;;4.90;99.90;;;;;;5138827;28;20041;-60
2022/12/04 06:11:48;;;;;;;53.15;26.00;;;4.90;99.90;;;;;;5154114;28;20048;-59
2022/12/04 06:14:21;;;;;;;53.42;25.83;;;4.80;99.90;;;;;;5138980;28;20047;-61
2022/12/04 06:16:53;;;;;;;55.60;25.53;;;4.80;99.90;;;;;;5122496;28;20057;-60
2022/12/04 06:19:27;;;;;;;57.92;24.40;;;4.80;99.90;;;;;;5122406;28;20299;-60
2022/12/04 06:21:59;;;;;;;;;;;4.80;99.90;;;;;;5140759;28;20038;-59
2022/12/04 06:24:30;;;;;;;56.17;24.77;;;4.80;99.90;;;;;;5172357;28;19910;-59
2022/12/04 06:27:09;;;;;;;55.20;24.65;;;4.80;99.90;;;;;;5139298;28;20027;-62
2022/12/04 06:29:40;;;;;;;55.78;24.85;;;4.80;99.90;;;;;;5139289;28;20050;-60
2022/12/04 06:32:17;;;;;;;58.17;25.42;;;4.80;99.90;;;;;;5141042;28;20105;-60
2022/12/04 06:34:54;;;;;;;41.88;21.80;;;4.80;99.90;;;;;;5161458;28;20034;-60
2022/12/04 06:37:29;;;;;;;53.25;23.98;;;4.60;99.90;;;;;;5139466;28;20046;-59
2022/12/04 06:40:03;;;;;;;48.92;23.88;;;4.70;99.90;;;;;;5130681;28;20046;-60
2022/12/04 06:42:36;;;;;;;55.50;23.48;;;4.70;99.90;;;;;;5153290;28;20041;-60
2022/12/04 06:45:14;;;;;;;50.45;23.05;;;4.60;99.90;;;;;;5140638;28;20042;-60
2022/12/04 06:47:49;;;;;;;58.78;22.98;;;4.60;99.90;;;;;;5152468;28;20223;-60
2022/12/04 06:50:23;;;;;;;57.67;24.35;;;4.60;99.90;;;;;;5142111;28;20196;-60
2022/12/04 06:52:54;;;;;;;55.63;23.98;;;4.70;99.90;;;;;;5120179;29;20239;-59
2022/12/04 06:55:30;;;;;;;49.80;20.92;;;4.70;99.90;;;;;;5120423;29;20197;-59
2022/12/04 06:58:05;;;;;;;37.60;18.85;;;4.60;99.90;;;;;;5148224;28;20049;-60
2022/12/04 07:00:39;;;;;;;51.47;23.27;;;4.50;99.90;;;;;;5139688;28;20051;-59
2022/12/04 07:03:16;;;;;;;50.38;22.10;;;4.50;99.90;;;;;;5126554;28;20041;-59
2022/12/04 07:05:53;;;;;;;51.50;21.30;;;4.60;99.90;;;;;;5133489;28;20046;-60
2022/12/04 07:08:27;;;;;;;49.83;22.35;;;4.40;99.90;;;;;;5141537;28;20230;-60
2022/12/04 07:11:01;;;;;;;39.88;19.33;;;4.40;99.90;;;;;;5126571;28;20054;-61
2022/12/04 07:13:35;;;;;;;62.83;23.40;;;4.40;99.90;;;;;;5144043;28;20046;-61
2022/12/04 07:16:12;;;;;;;40.40;18.50;;;4.30;99.90;;;;;;5157990;28;20035;-60
2022/12/04 07:18:45;;;;;;;47.75;20.85;;;4.30;99.90;;;;;;5138317;28;20049;-60
2022/12/04 07:21:42;;;;;;;48.33;22.90;;;4.40;99.90;;;;;;5120103;28;20049;-59
2022/12/04 07:24:23;;;;;;;38.45;17.15;;;4.30;99.90;;;;;;5125145;28;20033;-61
2022/12/04 07:26:56;;;;;;;55.67;23.25;;;4.30;99.90;;;;;;5149308;28;20438;-59
2022/12/04 07:29:30;;;;;;;46.70;21.73;;;4.40;99.90;;;;;;5126989;28;20049;-62
2022/12/04 07:32:01;;;;;;;63.83;25.25;;;4.40;99.90;;;;;;5137433;28;20061;-61
2022/12/04 07:34:35;;;;;;;66.90;28.83;;;4.50;99.90;;;;;;5122283;28;20080;-61
2022/12/04 07:37:10;;;;;;;325.75;195.32;;;4.50;99.90;;;;;;5155672;28;20062;-62
2022/12/04 07:39:49;;;;;;;94.30;50.95;;;4.50;99.90;;;;;;5120259;28;20039;-60
2022/12/04 07:42:21;;;;;;;66.82;36.50;;;4.40;99.90;;;;;;5118932;28;20119;-60
2022/12/04 07:44:54;;;;;;;120.80;102.22;;;4.30;99.90;;;;;;5128558;28;20066;-59
2022/12/04 07:47:26;;;;;;;126.47;102.22;;;4.30;99.90;;;;;;5137979;28;20346;-65
2022/12/04 07:49:59;;;;;;;109.53;78.93;;;4.40;99.90;;;;;;5120346;28;20056;-60
2022/12/04 07:52:46;;;;;;;142.68;95.35;;;4.50;99.90;;;;;;5143272;28;20064;-61
2022/12/04 07:55:20;;;;;;;97.95;55.58;;;4.40;99.90;;;;;;5135221;28;20049;-60
2022/12/04 07:57:51;;;;;;;134.82;80.18;;;4.40;99.90;;;;;;5128500;28;20049;-61
2022/12/04 08:00:25;;;;;;;70.40;36.67;;;4.50;99.90;;;;;;5137082;28;20048;-60
2022/12/04 08:02:59;;;;;;;123.68;72.40;;;4.60;99.90;;;;;;5096724;28;20053;-60
2022/12/04 08:05:36;;;;;;;47.47;23.25;;;4.40;99.90;;;;;;5152642;28;20054;-60
2022/12/04 08:08:10;;;;;;;74.32;40.83;;;4.50;99.90;;;;;;5154672;28;20046;-60
2022/12/04 08:10:43;;;;;;;54.95;25.88;;;4.60;99.90;;;;;;5161396;28;20046;-60
2022/12/04 08:13:14;;;;;;;76.78;43.13;;;4.50;99.90;;;;;;5121007;28;20152;-60
2022/12/04 08:15:48;;;;;;;64.60;29.50;;;4.40;99.90;;;;;;5123382;28;20061;-59
2022/12/04 08:18:19;;;;;;;85.38;47.70;;;4.50;99.90;;;;;;5139469;28;20053;-59
2022/12/04 08:20:53;;;;;;;54.42;24.55;;;4.40;99.90;;;;;;5139115;28;20081;-59
2022/12/04 08:23:30;;;;;;;129.82;76.00;;;4.40;99.90;;;;;;5161999;28;20034;-59
2022/12/04 08:26:04;;;;;;;97.78;58.10;;;4.40;99.90;;;;;;5111457;29;20043;-60
2022/12/04 08:28:42;;;;;;;77.25;39.28;;;4.30;99.90;;;;;;5097942;29;20051;-59
2022/12/04 08:31:23;;;;;;;85.45;52.60;;;4.30;99.90;;;;;;5119776;28;20056;-59
2022/12/04 08:34:03;;;;;;;112.30;56.35;;;4.40;99.90;;;;;;5141722;28;20329;-59
2022/12/04 08:36:34;;;;;;;124.32;65.05;;;4.30;99.90;;;;;;5099819;29;20053;-60
2022/12/04 08:39:12;;;;;;;155.70;74.97;;;4.30;99.90;;;;;;5107030;28;20051;-60
2022/12/04 08:41:45;;;;;;;657.25;489.70;;;4.20;99.90;;;;;;5130768;28;20053;-60
2022/12/04 08:44:19;;;;;;;249.65;195.63;;;4.30;99.90;;;;;;5108297;28;20038;-59
2022/12/04 08:46:55;;;;;;;346.15;261.75;;;4.20;99.90;;;;;;5124472;28;20035;-60
2022/12/04 08:49:27;;;;;;;238.73;179.70;;;4.20;99.90;;;;;;5135492;28;20034;-59
2022/12/04 08:52:04;;;;;;;176.65;112.38;;;4.30;99.90;;;;;;5135106;28;20050;-59
2022/12/04 08:54:35;;;;;;;156.10;94.00;;;4.20;99.90;;;;;;5147019;28;20064;-60
2022/12/04 08:57:07;;;;;;;69.68;27.85;;;4.10;99.90;;;;;;5148886;28;20046;-62
2022/12/04 08:59:38;;;;;;;78.20;39.10;;;4.00;99.90;;;;;;5132325;28;20061;-59
2022/12/04 09:02:11;;;;;;;161.82;88.88;;;4.20;99.90;;;;;;5112727;28;20053;-59
2022/12/04 09:04:48;;;;;;;77.75;42.38;;;4.20;99.90;;;;;;5111818;28;20054;-59
2022/12/04 09:07:21;;;;;;;88.40;47.00;;;4.10;99.90;;;;;;5154506;28;20029;-59
2022/12/04 09:09:52;;;;;;;72.53;32.75;;;4.20;99.90;;;;;;5150505;28;20042;-61
2022/12/04 09:12:24;;;;;;;86.68;32.47;;;4.20;99.90;;;;;;5137196;28;20227;-59
2022/12/04 09:14:58;;;;;;;80.13;34.88;;;4.20;99.90;;;;;;5147857;28;20047;-59
2022/12/04 09:17:29;;;;;;;108.93;60.33;;;4.30;99.90;;;;;;5130733;28;20042;-59
2022/12/04 09:20:02;;;;;;;58.30;24.45;;;4.20;99.90;;;;;;5126944;28;20049;-59
2022/12/04 09:22:35;;;;;;;60.30;27.23;;;4.20;99.90;;;;;;5116529;28;20053;-61
2022/12/04 09:25:07;;;;;;;60.72;22.00;;;4.00;99.90;;;;;;5133718;28;20324;-60
2022/12/04 09:27:40;;;;;;;37.30;18.50;;;4.00;99.90;;;;;;5132195;28;20065;-60
2022/12/04 09:30:12;;;;;;;42.60;18.95;;;4.00;99.90;;;;;;5131782;28;20053;-59
2022/12/04 09:32:44;;;;;;;50.78;25.95;;;3.90;99.90;;;;;;5133356;28;20062;-59
2022/12/04 09:35:15;;;;;;;63.80;39.83;;;3.80;99.90;;;;;;5132179;28;20050;-61
2022/12/04 09:37:48;;;;;;;226.75;142.57;;;3.80;99.90;;;;;;5134294;28;20039;-60
2022/12/04 09:40:31;;;;;;;164.18;98.82;;;3.90;99.90;;;;;;5147552;28;20033;-59
2022/12/04 09:43:16;;;;;;;137.93;79.40;;;3.90;99.90;;;;;;5132099;28;20096;-60
2022/12/04 09:45:54;;;;;;;212.95;127.47;;;4.00;99.90;;;;;;5148394;28;20042;-60
2022/12/04 09:48:34;;;;;;;102.38;57.13;;;4.00;99.90;;;;;;5132451;28;20031;-61
2022/12/04 09:51:17;;;;;;;99.63;56.35;;;3.90;99.90;;;;;;5119929;28;20049;-59
2022/12/04 09:54:09;;;;;;;136.27;86.72;;;3.90;99.90;;;;;;5148206;28;20060;-60
2022/12/04 09:57:22;;;;;;;138.63;89.70;;;3.90;99.90;;;;;;5134399;28;20053;-58
2022/12/04 09:59:55;;;;;;;126.13;79.72;;;3.90;99.90;;;;;;5143958;28;20046;-60
2022/12/04 10:02:49;;;;;;;54.03;29.80;;;3.80;99.90;;;;;;5120323;28;20046;-59
2022/12/04 10:05:44;;;;;;;61.70;27.15;;;3.80;99.90;;;;;;5145231;28;20066;-60
2022/12/04 10:08:27;;;;;;;65.30;34.88;;;3.90;99.90;;;;;;5134604;28;20042;-60
2022/12/04 10:11:59;;;;;;;102.30;60.45;;;3.80;99.90;;;;;;5128699;28;20046;-60
2022/12/04 10:15:14;;;;;;;51.45;21.52;;;4.00;99.90;;;;;;5072071;29;20063;-60
2022/12/04 10:18:27;;;;;;;37.85;20.02;;;4.00;99.90;;;;;;5040076;29;20222;-60
2022/12/04 10:21:08;;;;;;;55.70;30.77;;;3.90;99.90;;;;;;5123461;28;20053;-59
2022/12/04 10:24:22;;;;;;;44.95;23.92;;;3.80;99.90;;;;;;5127817;28;20087;-61
2022/12/04 10:27:01;;;;;;;44.60;20.40;;;3.80;99.90;;;;;;5116134;28;20037;-61
2022/12/04 10:29:40;;;;;;;34.30;18.15;;;3.60;99.90;;;;;;5136133;28;20234;-62
2022/12/04 10:32:28;;;;;;;37.72;19.90;;;3.70;99.90;;;;;;5149213;28;20255;-62
2022/12/04 10:35:34;;;;;;;49.08;21.83;;;3.70;99.90;;;;;;5119428;28;20051;-60
2022/12/04 10:38:32;;;;;;;46.83;24.52;;;3.80;99.90;;;;;;5133644;28;20046;-60
2022/12/04 10:41:23;;;;;;;96.05;32.33;;;3.70;99.90;;;;;;5128968;28;20052;-61
2022/12/04 10:43:56;;;;;;;67.80;29.38;;;3.80;99.90;;;;;;5163330;28;20320;-62
2022/12/04 10:46:34;;;;;;;71.57;36.40;;;3.90;99.90;;;;;;5136082;28;20335;-61
2022/12/04 10:49:21;;;;;;;64.80;30.58;;;3.90;99.90;;;;;;5115695;28;20046;-60
2022/12/04 10:51:55;;;;;;;45.70;23.65;;;4.00;99.90;;;;;;5148203;28;20046;-61
2022/12/04 10:54:54;;;;;;;;;;;3.90;99.90;;;;;;5136772;28;20046;-59
2022/12/04 10:57:55;;;;;;;67.85;29.90;;;3.80;99.90;;;;;;5149315;28;19918;-60
2022/12/04 11:00:33;;;;;;;51.28;25.60;;;3.80;99.90;;;;;;5050642;29;20265;-60
2022/12/04 11:03:27;;;;;;;47.85;25.73;;;3.80;99.90;;;;;;5075423;29;20048;-61
2022/12/04 11:06:08;;;;;;;42.97;22.95;;;3.70;99.90;;;;;;5084171;29;20064;-61
2022/12/04 11:08:49;;;;;;;79.18;36.13;;;3.50;99.90;;;;;;5089880;29;20112;-60
2022/12/04 11:11:39;;;;;;;115.13;57.28;;;3.60;99.90;;;;;;5075653;29;20081;-60
2022/12/04 11:14:21;;;;;;;54.80;26.73;;;3.70;99.90;;;;;;5057374;29;20380;-60
2022/12/04 11:17:08;;;;;;;43.38;19.92;;;3.70;99.90;;;;;;5041920;29;20337;-62
2022/12/04 11:19:39;;;;;;;127.40;64.18;;;3.70;99.90;;;;;;5073194;29;20436;-60
2022/12/04 11:22:18;;;;;;;104.07;49.85;;;3.70;99.90;;;;;;5061619;29;20040;-61
2022/12/04 11:24:57;;;;;;;116.65;54.70;;;3.80;99.90;;;;;;5065060;29;20252;-61
2022/12/04 11:27:33;;;;;;;42.97;20.27;;;3.80;99.90;;;;;;5045388;29;20043;-62
2022/12/04 11:30:13;;;;;;;26.95;13.30;;;3.90;99.90;;;;;;5075135;29;20235;-60
2022/12/04 11:32:47;;;;;;;34.70;17.33;;;3.90;99.90;;;;;;5084934;29;20050;-61
2022/12/04 11:35:26;;;;;;;33.83;17.05;;;3.80;99.90;;;;;;5095842;29;20404;-61
2022/12/04 11:38:18;;;;;;;37.20;15.65;;;3.80;99.90;;;;;;5104660;28;20042;-61
2022/12/04 11:40:59;;;;;;;36.28;18.15;;;3.80;99.90;;;;;;5150023;28;20045;-62
2022/12/04 11:43:36;;;;;;;40.90;17.73;;;3.90;99.90;;;;;;5104431;28;20049;-61
2022/12/04 11:46:21;;;;;;;46.10;19.35;;;3.90;99.90;;;;;;5144972;28;20041;-60
2022/12/04 11:48:53;;;;;;;40.42;17.83;;;4.00;99.90;;;;;;5129249;28;20038;-61
2022/12/04 11:51:40;;;;;;;40.08;17.20;;;4.10;99.90;;;;;;5130074;28;20038;-60
2022/12/04 11:54:29;;;;;;;40.38;17.30;;;4.20;99.90;;;;;;5130581;28;20043;-59
2022/12/04 11:57:33;;;;;;;39.75;18.05;;;4.10;99.90;;;;;;5135297;28;21006;-61
2022/12/04 12:00:25;;;;;;;60.40;33.97;;;4.20;99.90;;;;;;5132389;28;20038;-60
2022/12/04 12:03:33;;;;;;;438.45;289.80;;;4.40;99.90;;;;;;5149091;28;20045;-61
2022/12/04 12:06:37;;;;;;;391.10;272.02;;;4.30;99.90;;;;;;5135266;28;20285;-61
2022/12/04 12:09:42;;;;;;;453.45;365.80;;;4.20;99.90;;;;;;5146106;28;20042;-61
2022/12/04 12:12:31;;;;;;;529.85;395.23;;;4.20;99.90;;;;;;5115062;28;20050;-62
2022/12/04 12:15:31;;;;;;;410.25;344.35;;;4.30;99.90;;;;;;5148006;28;20039;-61
2022/12/04 12:18:24;;;;;;;300.00;250.30;;;4.30;99.90;;;;;;5127749;28;20587;-62
2022/12/04 12:21:21;;;;;;;119.70;83.95;;;4.40;99.90;;;;;;5144968;28;20042;-61
2022/12/04 12:24:20;;;;;;;45.92;26.10;;;4.40;99.90;;;;;;5125429;28;20041;-60
2022/12/04 12:27:07;;;;;;;83.95;68.07;;;4.50;99.90;;;;;;5128086;28;20255;-59
2022/12/04 12:30:19;;;;;;;41.38;24.63;;;4.60;99.90;;;;;;5115331;28;20054;-60
2022/12/04 12:33:15;;;;;;;36.28;16.40;;;4.60;99.90;;;;;;5132302;28;20053;-60
2022/12/04 12:36:06;;;;;;;55.22;36.72;;;4.40;99.90;;;;;;5131171;28;20275;-60
2022/12/04 12:38:56;;;;;;;51.00;36.03;;;4.50;99.90;;;;;;5122330;28;20042;-61
2022/12/04 12:41:54;;;;;;;37.38;18.23;;;4.50;99.90;;;;;;5130839;28;20511;-61
2022/12/04 12:44:54;;;;;;;36.38;18.83;;;4.40;99.90;;;;;;5109217;28;20047;-61
2022/12/04 12:47:42;;;;;;;37.90;19.65;;;4.50;99.90;;;;;;5146483;28;20258;-61
2022/12/04 12:50:44;;;;;;;31.75;17.05;;;4.50;99.90;;;;;;5125891;28;20047;-59
2022/12/04 12:53:30;;;;;;;33.55;17.38;;;4.50;99.90;;;;;;5147296;28;20324;-61
2022/12/04 12:56:09;;;;;;;35.08;15.80;;;4.50;99.90;;;;;;5135818;28;20038;-60
2022/12/04 12:58:53;;;;;;;36.55;19.50;;;4.40;99.90;;;;;;5116666;28;20057;-60
2022/12/04 13:01:50;;;;;;;41.90;28.13;;;4.30;99.90;;;;;;5134905;28;20046;-61
2022/12/04 13:04:43;;;;;;;42.30;32.05;;;4.30;99.90;;;;;;5124888;28;20045;-61
2022/12/04 13:07:17;;;;;;;32.15;16.45;;;4.40;99.90;;;;;;5140548;28;20036;-60
2022/12/04 13:10:09;;;;;;;38.47;17.73;;;4.30;99.90;;;;;;5127965;28;20398;-62
2022/12/04 13:13:22;;;;;;;32.97;17.17;;;4.30;99.90;;;;;;5133291;28;20035;-61
2022/12/04 13:16:11;;;;;;;30.42;16.27;;;4.40;99.90;;;;;;5128681;28;20207;-62
2022/12/04 13:19:16;;;;;;;33.67;16.52;;;4.30;99.90;;;;;;5151837;28;20035;-61
2022/12/04 13:22:21;;;;;;;32.53;18.55;;;4.40;99.90;;;;;;5149293;28;20038;-62
2022/12/04 13:25:33;;;;;;;59.83;35.63;;;4.30;99.90;;;;;;5147361;28;20039;-62
2022/12/04 13:28:19;;;;;;;31.90;16.48;;;4.40;99.90;;;;;;5134635;28;20042;-61
2022/12/04 13:31:38;;;;;;;29.58;15.48;;;4.50;99.90;;;;;;5148304;28;20061;-62
2022/12/04 13:34:28;;;;;;;38.00;16.45;;;4.30;99.90;;;;;;5072297;29;20029;-61
2022/12/04 13:37:38;;;;;;;62.15;35.08;;;4.30;99.90;;;;;;5039591;29;20048;-60
2022/12/04 13:40:29;;;;;;;44.72;26.10;;;4.30;99.90;;;;;;5071848;29;20067;-60
2022/12/04 13:43:41;;;;;;;25.42;14.15;;;4.20;99.90;;;;;;5067191;29;20145;-59
2022/12/04 13:46:35;;;;;;;39.33;20.95;;;4.10;99.90;;;;;;5071061;29;20188;-63
2022/12/04 13:49:45;;;;;;;43.67;26.98;;;4.00;99.90;;;;;;5055744;29;20365;-61
2022/12/04 13:52:39;;;;;;;69.43;42.72;;;4.10;99.90;;;;;;5055950;29;20037;-62
2022/12/04 13:55:38;;;;;;;53.25;35.88;;;4.10;99.90;;;;;;5055291;29;20060;-62
2022/12/04 13:58:10;;;;;;;49.90;31.92;;;4.10;99.90;;;;;;5056030;29;20036;-61
2022/12/04 14:00:44;;;;;;;29.80;13.13;;;4.10;99.90;;;;;;5069699;29;20048;-62
2022/12/04 14:03:34;;;;;;;27.95;12.75;;;4.10;99.90;;;;;;5055417;29;20056;-62
2022/12/04 14:06:40;;;;;;;22.00;11.05;;;4.00;99.90;;;;;;5121473;28;20106;-62
2022/12/04 14:09:26;;;;;;;25.02;12.85;;;4.00;99.90;;;;;;5133841;28;20227;-63
2022/12/04 14:12:10;;;;;;;135.68;113.40;;;4.00;99.90;;;;;;5129759;28;20054;-60